createdAt,value
2019-04-20T00:01:19.724Z,90.70
2019-04-20T00:03:25.461Z,91.10
2019-04-20T00:05:27.516Z,90.90
2019-04-20T00:07:34.830Z,90.90
2019-04-20T00:09:39.749Z,90.60
2019-04-20T00:11:53.631Z,91.00
2019-04-20T00:13:59.176Z,92.00
2019-04-20T00:15:55.705Z,91.90
2019-04-20T00:18:04.370Z,90.80
2019-04-20T00:20:13.424Z,91.10
2019-04-20T00:22:20.072Z,91.40
2019-04-20T00:24:35.329Z,92.00
2019-04-20T00:27:11.785Z,91.90
2019-04-20T00:29:02.740Z,91.90
2019-04-20T00:31:09.636Z,92.10
2019-04-20T00:33:07.726Z,92.30
2019-04-20T00:35:02.210Z,92.90
2019-04-20T00:37:07.056Z,93.00
2019-04-20T00:39:14.592Z,93.20
2019-04-20T00:41:18.633Z,93.10
2019-04-20T00:43:30.114Z,93.60
2019-04-20T00:45:33.014Z,93.70
2019-04-20T00:47:45.483Z,93.90
2019-04-20T00:49:53.625Z,93.80
2019-04-20T00:52:13.115Z,93.90
2019-04-20T00:53:55.249Z,94.10
2019-04-20T00:55:57.258Z,94.10
2019-04-20T00:58:11.757Z,94.40
2019-04-20T01:00:25.806Z,94.10
2019-04-20T01:02:29.935Z,94.20
2019-04-20T01:04:45.965Z,94.30
2019-04-20T01:07:01.676Z,94.30
2019-04-20T01:09:16.287Z,94.70
2019-04-20T01:11:26.997Z,94.20
2019-04-20T01:13:28.041Z,95.00
2019-04-20T01:15:38.759Z,94.70
2019-04-20T01:17:40.985Z,95.50
2019-04-20T01:19:43.347Z,95.20
2019-04-20T01:21:54.833Z,94.90
2019-04-20T01:23:58.604Z,94.50
2019-04-20T01:26:05.482Z,94.60
2019-04-20T01:28:18.341Z,94.70
2019-04-20T01:30:21.951Z,94.70
2019-04-20T01:32:27.847Z,94.70
2019-04-20T01:34:36.798Z,94.60
2019-04-20T01:36:47.964Z,94.50
2019-04-20T01:38:47.573Z,94.40
2019-04-20T01:40:40.237Z,94.60
2019-04-20T01:42:44.596Z,94.50
2019-04-20T01:44:50.792Z,95.00
2019-04-20T01:46:59.319Z,95.50
2019-04-20T01:49:09.383Z,95.80
2019-04-20T01:51:11.796Z,95.10
2019-04-20T01:53:23.739Z,95.10
2019-04-20T01:55:38.579Z,95.20
2019-04-20T01:57:44.930Z,95.10
2019-04-20T01:59:51.714Z,95.20
2019-04-20T02:02:02.663Z,95.10
2019-04-20T02:04:22.456Z,95.30
2019-04-20T02:06:24.769Z,95.80
2019-04-20T02:08:29.471Z,96.10
2019-04-20T02:10:41.674Z,96.40
2019-04-20T02:12:40.872Z,96.60
2019-04-20T02:14:51.762Z,96.90
2019-04-20T02:17:01.653Z,96.80
2019-04-20T02:19:09.014Z,96.90
2019-04-20T02:21:19.641Z,97.10
2019-04-20T02:23:17.592Z,97.00
2019-04-20T02:25:14.207Z,97.40
2019-04-20T02:27:27.027Z,97.70
2019-04-20T02:29:47.434Z,97.70
2019-04-20T02:32:55.572Z,97.70
2019-04-20T02:34:16.485Z,97.60
2019-04-20T02:39:22.090Z,97.70
2019-04-20T02:41:11.784Z,97.70
2019-04-20T02:43:16.359Z,97.60
2019-04-20T02:45:33.386Z,97.90
2019-04-20T02:47:24.644Z,98.00
2019-04-20T02:49:44.861Z,97.90
2019-04-20T02:51:39.404Z,97.50
2019-04-20T02:53:40.812Z,97.70
2019-04-20T02:55:50.032Z,97.80
2019-04-20T02:57:54.858Z,97.70
2019-04-20T03:01:51.793Z,97.80
2019-04-20T03:03:43.675Z,97.80
2019-04-20T03:06:00.251Z,98.30
2019-04-20T03:08:08.740Z,98.10
2019-04-20T03:10:11.230Z,98.40
2019-04-20T03:12:23.879Z,98.50
2019-04-20T03:14:21.824Z,98.20
2019-04-20T03:16:31.868Z,98.20
2019-04-20T03:18:38.626Z,98.60
2019-04-20T03:20:49.723Z,98.40
2019-04-20T03:23:11.159Z,98.70
2019-04-20T03:24:59.770Z,98.80
2019-04-20T03:27:19.697Z,98.30
2019-04-20T03:29:56.725Z,98.20
2019-04-20T03:34:38.306Z,98.40
2019-04-20T03:36:25.299Z,98.60
2019-04-20T03:38:20.105Z,97.90
2019-04-20T03:40:24.378Z,98.30
2019-04-20T03:42:15.908Z,98.50
2019-04-20T03:44:25.622Z,98.70
2019-04-20T03:46:35.700Z,98.00
2019-04-20T03:48:48.352Z,97.90
2019-04-20T03:50:58.843Z,97.90
2019-04-20T03:53:09.971Z,98.20
2019-04-20T03:55:26.171Z,98.30
2019-04-20T03:57:45.891Z,98.40
2019-04-20T03:59:48.497Z,98.10
2019-04-20T04:02:22.520Z,98.10
2019-04-20T04:04:37.130Z,98.10
2019-04-20T04:06:30.677Z,97.90
2019-04-20T04:08:35.377Z,98.10
2019-04-20T04:10:52.443Z,98.10
2019-04-20T04:13:14.555Z,98.20
2019-04-20T04:15:19.004Z,98.50
2019-04-20T04:17:29.671Z,98.40
2019-04-20T04:19:33.651Z,98.70
2019-04-20T04:21:49.713Z,98.30
2019-04-20T04:23:54.311Z,98.10
2019-04-20T04:26:07.506Z,98.40
2019-04-20T04:28:09.766Z,98.10
2019-04-20T04:30:09.492Z,98.30
2019-04-20T04:32:33.092Z,98.30
2019-04-20T04:34:30.704Z,98.20
2019-04-20T04:36:26.222Z,98.20
2019-04-20T04:38:42.509Z,98.40
2019-04-20T04:40:52.483Z,98.40
2019-04-20T04:42:52.533Z,98.40
2019-04-20T04:44:46.742Z,98.00
2019-04-20T04:46:50.465Z,97.50
2019-04-20T04:48:51.144Z,97.80
2019-04-20T04:51:00.804Z,97.20
2019-04-20T04:53:09.056Z,97.40
2019-04-20T04:55:20.185Z,96.90
2019-04-20T04:57:13.679Z,96.80
2019-04-20T04:59:17.704Z,97.00
2019-04-20T05:01:25.901Z,96.80
2019-04-20T05:03:58.254Z,97.10
2019-04-20T05:06:06.460Z,96.70
2019-04-20T05:08:02.838Z,96.30
2019-04-20T05:09:59.157Z,96.30
2019-04-20T05:12:10.315Z,96.10
2019-04-20T05:14:15.043Z,95.60
2019-04-20T05:16:35.939Z,95.80
2019-04-20T05:18:44.912Z,95.40
2019-04-20T05:20:46.952Z,95.10
2019-04-20T05:22:59.094Z,95.00
2019-04-20T05:25:08.390Z,95.20
2019-04-20T05:27:33.523Z,95.30
2019-04-20T05:29:24.114Z,94.80
2019-04-20T05:31:32.111Z,94.50
2019-04-20T05:33:48.532Z,94.40
2019-04-20T05:35:58.916Z,94.20
2019-04-20T05:38:06.603Z,94.20
2019-04-20T05:40:10.793Z,94.10
2019-04-20T05:42:09.292Z,93.90
2019-04-20T05:44:26.028Z,93.30
2019-04-20T05:46:36.213Z,92.70
2019-04-20T05:48:46.271Z,92.60
2019-04-20T05:50:51.899Z,92.60
2019-04-20T05:52:57.775Z,92.30
2019-04-20T05:55:04.185Z,92.20
2019-04-20T05:57:17.463Z,91.90
2019-04-20T05:59:11.356Z,91.90
2019-04-20T06:01:20.468Z,92.00
2019-04-20T06:03:23.228Z,91.70
2019-04-20T06:05:27.515Z,91.60
2019-04-20T06:07:38.469Z,91.60
2019-04-20T06:09:39.718Z,91.60
2019-04-20T06:12:00.783Z,91.40
2019-04-20T06:14:03.500Z,91.30
2019-04-20T06:16:22.572Z,91.30
2019-04-20T06:18:44.106Z,91.20
2019-04-20T06:21:00.485Z,91.10
2019-04-20T06:23:10.079Z,90.80
2019-04-20T06:25:40.863Z,90.70
2019-04-20T06:27:38.155Z,90.90
2019-04-20T06:29:35.174Z,90.80
2019-04-20T06:31:42.161Z,90.60
2019-04-20T06:34:30.370Z,90.20
2019-04-20T06:36:32.134Z,89.80
2019-04-20T06:38:53.953Z,89.50
2019-04-20T06:40:57.858Z,89.50
2019-04-20T06:42:48.197Z,89.40
2019-04-20T06:44:46.354Z,89.40
2019-04-20T06:47:06.770Z,89.10
2019-04-20T06:49:11.420Z,88.60
2019-04-20T06:51:09.189Z,88.70
2019-04-20T06:53:32.540Z,88.70
2019-04-20T06:55:28.944Z,88.40
2019-04-20T06:57:34.646Z,88.00
2019-04-20T06:59:43.265Z,87.20
2019-04-20T07:01:56.785Z,87.10
2019-04-20T07:04:05.542Z,86.50
2019-04-20T07:06:19.493Z,86.20
2019-04-20T07:08:16.860Z,86.20
2019-04-20T07:10:19.749Z,85.50
2019-04-20T07:12:12.584Z,85.90
2019-04-20T07:14:09.488Z,85.70
2019-04-20T07:16:37.960Z,85.70
2019-04-20T07:19:00.742Z,85.50
2019-04-20T07:21:13.922Z,84.90
2019-04-20T07:23:23.880Z,84.10
2019-04-20T07:25:42.245Z,84.30
2019-04-20T07:27:49.696Z,84.20
2019-04-20T07:29:58.478Z,84.10
2019-04-20T07:31:57.671Z,84.10
2019-04-20T07:34:05.624Z,83.80
2019-04-20T07:36:20.189Z,84.40
2019-04-20T07:42:37.714Z,82.40
2019-04-20T07:44:41.374Z,82.40
2019-04-20T07:46:54.463Z,81.90
2019-04-20T07:48:42.293Z,82.00
2019-04-20T07:50:44.958Z,82.30
2019-04-20T07:52:46.353Z,82.10
2019-04-20T07:55:28.543Z,81.30
2019-04-20T07:57:10.006Z,80.70
2019-04-20T07:59:09.186Z,81.20
2019-04-20T08:01:38.912Z,81.30
2019-04-20T08:03:46.659Z,81.40
2019-04-20T08:05:47.981Z,81.10
2019-04-20T08:07:49.526Z,82.20
2019-04-20T08:09:54.398Z,81.80
2019-04-20T08:12:29.317Z,81.50
2019-04-20T08:14:24.230Z,81.80
2019-04-20T08:16:38.306Z,81.10
2019-04-20T08:18:45.735Z,81.10
2019-04-20T08:20:41.565Z,81.80
2019-04-20T08:22:47.451Z,78.70
2019-04-20T08:24:48.275Z,78.10
2019-04-20T08:26:48.581Z,77.30
2019-04-20T08:28:55.458Z,77.20
2019-04-20T08:31:31.244Z,76.70
2019-04-20T08:33:52.733Z,76.40
2019-04-20T08:35:54.666Z,77.60
2019-04-20T08:38:19.960Z,76.60
2019-04-20T08:40:05.338Z,77.50
2019-04-20T08:42:05.954Z,77.70
2019-04-20T08:46:15.037Z,75.80
2019-04-20T08:48:27.576Z,73.70
2019-04-20T08:50:29.512Z,74.20
2019-04-20T08:52:56.968Z,73.80
2019-04-20T08:54:35.548Z,74.60
2019-04-20T08:56:33.735Z,74.00
2019-04-20T08:58:31.617Z,73.60
2019-04-20T09:00:44.549Z,73.00
2019-04-20T09:02:48.916Z,73.00
2019-04-20T09:04:56.413Z,72.60
2019-04-20T09:07:04.115Z,72.80
2019-04-20T09:09:22.439Z,72.80
2019-04-20T09:11:19.631Z,73.20
2019-04-20T09:13:21.062Z,73.30
2019-04-20T09:17:45.157Z,72.70
2019-04-20T09:19:52.750Z,71.80
2019-04-20T09:22:09.827Z,72.10
2019-04-20T09:24:28.958Z,74.70
2019-04-20T09:26:26.930Z,73.50
2019-04-20T09:28:32.295Z,78.00
2019-04-20T09:30:41.771Z,74.60
2019-04-20T09:33:03.632Z,73.30
2019-04-20T09:35:09.547Z,76.20
2019-04-20T09:37:44.696Z,74.10
2019-04-20T09:40:11.319Z,73.60
2019-04-20T09:42:09.964Z,74.90
2019-04-20T09:44:20.082Z,73.60
2019-04-20T09:46:24.322Z,72.90
2019-04-20T09:48:36.132Z,74.50
2019-04-20T09:50:55.562Z,74.30
2019-04-20T09:53:00.480Z,75.40
2019-04-20T09:55:02.936Z,75.00
2019-04-20T09:57:25.318Z,74.00
2019-04-20T09:59:16.664Z,73.50
2019-04-20T10:01:16.630Z,73.20
2019-04-20T10:03:09.222Z,73.90
2019-04-20T10:05:33.488Z,72.10
2019-04-20T10:07:39.286Z,73.60
2019-04-20T10:09:45.618Z,74.20
2019-04-20T10:11:53.216Z,73.10
2019-04-20T10:13:58.493Z,73.50
2019-04-20T10:16:03.767Z,75.00
2019-04-20T10:18:07.974Z,73.20
2019-04-20T10:20:20.884Z,73.50
2019-04-20T10:22:18.421Z,71.20
2019-04-20T10:24:22.599Z,71.70
2019-04-20T10:26:27.010Z,72.80
2019-04-20T10:28:31.816Z,72.80
2019-04-20T10:30:36.710Z,69.50
2019-04-20T10:32:45.705Z,71.60
2019-04-20T10:34:46.587Z,70.90
2019-04-20T10:37:09.550Z,70.80
2019-04-20T10:39:18.485Z,70.20
2019-04-20T10:41:36.009Z,70.70
2019-04-20T10:43:28.323Z,69.80
2019-04-20T10:45:33.061Z,69.80
2019-04-20T10:47:43.375Z,71.70
2019-04-20T10:49:47.403Z,69.80
2019-04-20T10:51:51.715Z,67.00
2019-04-20T10:53:56.138Z,67.40
2019-04-20T10:56:01.269Z,67.30
2019-04-20T10:58:05.493Z,67.80
2019-04-20T11:00:10.599Z,67.50
2019-04-20T11:02:15.758Z,68.30
2019-04-20T11:04:20.882Z,67.90
2019-04-20T11:06:28.940Z,69.30
2019-04-20T11:08:32.970Z,67.20
2019-04-20T11:10:51.069Z,64.80
2019-04-20T11:12:44.254Z,62.40
2019-04-20T11:14:48.443Z,62.80
2019-04-20T11:16:52.468Z,64.30
2019-04-20T11:18:57.628Z,61.90
2019-04-20T11:21:01.744Z,63.20
2019-04-20T11:23:06.594Z,63.50
2019-04-20T11:25:10.620Z,64.10
2019-04-20T11:27:14.560Z,62.10
2019-04-20T11:29:20.009Z,62.30
2019-04-20T11:31:26.883Z,60.80
2019-04-20T11:33:30.047Z,59.80
2019-04-20T11:35:37.564Z,59.60
2019-04-20T11:37:39.889Z,59.10
2019-04-20T11:39:45.166Z,58.10
2019-04-20T11:41:49.748Z,59.00
2019-04-20T11:43:55.754Z,56.10
2019-04-20T11:46:00.546Z,56.70
2019-04-20T11:48:05.406Z,55.90
2019-04-20T11:50:11.899Z,55.90
2019-04-20T11:52:18.333Z,52.90
2019-04-20T11:54:22.079Z,51.20
2019-04-20T11:56:31.483Z,52.80
2019-04-20T11:58:33.166Z,51.90
2019-04-20T12:00:52.231Z,50.40
2019-04-20T12:03:15.901Z,50.60
2019-04-20T12:05:24.734Z,50.20
2019-04-20T12:07:20.108Z,49.60
2019-04-20T12:09:26.161Z,49.80
2019-04-20T12:11:40.636Z,50.00
2019-04-20T12:13:38.341Z,49.40
2019-04-20T12:15:45.423Z,48.40
2019-04-20T12:17:51.422Z,48.50
2019-04-20T12:19:56.028Z,48.80
2019-04-20T12:22:00.731Z,48.50
2019-04-20T12:24:06.633Z,47.40
2019-04-20T12:26:11.419Z,47.40
2019-04-20T12:28:16.059Z,46.30
2019-04-20T12:30:21.743Z,47.80
2019-04-20T12:32:29.525Z,47.90
2019-04-20T12:34:32.453Z,46.90
2019-04-20T12:36:37.361Z,48.00
2019-04-20T12:38:43.327Z,47.60
2019-04-20T12:40:48.521Z,46.90
2019-04-20T12:42:53.116Z,46.70
2019-04-20T12:44:57.811Z,46.70
2019-04-20T12:47:03.612Z,45.60
2019-04-20T12:49:09.435Z,45.20
2019-04-20T12:51:15.478Z,45.40
2019-04-20T12:53:20.450Z,46.10
2019-04-20T12:55:26.407Z,46.80
2019-04-20T12:57:32.282Z,45.40
2019-04-20T12:59:37.055Z,44.90
2019-04-20T13:01:41.603Z,45.90
2019-04-20T13:03:47.588Z,44.20
2019-04-20T13:05:52.313Z,45.90
2019-04-20T13:07:59.749Z,45.60
2019-04-20T13:10:05.713Z,46.20
2019-04-20T13:12:17.442Z,46.50
2019-04-20T13:15:16.153Z,45.60
2019-04-20T13:17:22.064Z,44.80
2019-04-20T13:19:27.066Z,44.70
2019-04-20T13:21:32.393Z,42.60
2019-04-20T13:23:37.293Z,44.10
2019-04-20T13:25:43.050Z,42.30
2019-04-20T13:27:49.125Z,43.80
2019-04-20T13:29:54.700Z,42.50
2019-04-20T13:32:02.018Z,42.20
2019-04-20T13:34:07.699Z,41.70
2019-04-20T13:36:12.538Z,41.30
2019-04-20T13:38:18.320Z,42.10
2019-04-20T13:40:23.832Z,43.40
2019-04-20T13:42:31.125Z,43.10
2019-04-20T13:44:34.940Z,42.60
2019-04-20T13:46:40.843Z,42.30
2019-04-20T13:48:47.150Z,42.80
2019-04-20T13:50:51.893Z,44.00
2019-04-20T13:52:56.601Z,44.60
2019-04-20T13:55:02.293Z,42.70
2019-04-20T13:57:08.040Z,45.00
2019-04-20T13:59:27.870Z,44.60
2019-04-20T14:01:39.008Z,45.00
2019-04-20T14:03:44.919Z,43.50
2019-04-20T14:05:50.844Z,43.90
2019-04-20T14:07:59.593Z,45.00
2019-04-20T14:10:05.833Z,43.30
2019-04-20T14:12:22.007Z,43.40
2019-04-20T14:14:17.221Z,43.70
2019-04-20T14:16:21.275Z,44.40
2019-04-20T14:18:25.298Z,42.50
2019-04-20T14:20:29.868Z,43.20
2019-04-20T14:22:33.812Z,42.00
2019-04-20T14:24:39.012Z,41.60
2019-04-20T14:26:44.575Z,39.80
2019-04-20T14:28:49.132Z,39.20
2019-04-20T14:30:54.149Z,40.00
2019-04-20T14:32:58.794Z,38.40
2019-04-20T14:35:03.156Z,37.30
2019-04-20T14:37:07.270Z,37.50
2019-04-20T14:39:12.045Z,36.70
2019-04-20T14:41:16.179Z,35.40
2019-04-20T14:43:21.150Z,34.00
2019-04-20T14:45:26.873Z,35.00
2019-04-20T14:47:31.885Z,34.90
2019-04-20T14:49:36.773Z,36.20
2019-04-20T14:51:41.658Z,34.30
2019-04-20T14:53:47.448Z,35.80
2019-04-20T14:55:53.398Z,34.30
2019-04-20T14:58:01.841Z,32.30
2019-04-20T15:00:23.579Z,32.00
2019-04-20T15:02:30.406Z,33.30
2019-04-20T15:04:36.931Z,33.20
2019-04-20T15:06:42.484Z,32.20
2019-04-20T15:08:48.342Z,32.40
2019-04-20T15:10:53.019Z,32.50
2019-04-20T15:13:02.420Z,35.50
2019-04-20T15:15:03.227Z,32.90
2019-04-20T15:17:10.828Z,33.10
2019-04-20T15:19:41.403Z,32.30
2019-04-20T15:21:47.469Z,32.10
2019-04-20T15:23:51.412Z,33.70
2019-04-20T15:25:55.421Z,33.80
2019-04-20T15:28:00.483Z,33.40
2019-04-20T15:30:06.569Z,34.90
2019-04-20T15:32:10.575Z,34.50
2019-04-20T15:34:15.021Z,33.50
2019-04-20T15:36:20.152Z,33.60
2019-04-20T15:38:24.984Z,31.80
2019-04-20T15:40:29.059Z,32.10
2019-04-20T15:42:33.230Z,32.50
2019-04-20T15:44:37.557Z,31.10
2019-04-20T15:46:41.698Z,31.40
2019-04-20T15:48:46.134Z,32.00
2019-04-20T15:50:50.335Z,31.20
2019-04-20T15:52:55.283Z,31.50
2019-04-20T15:55:01.780Z,31.80
2019-04-20T15:57:13.634Z,31.30
2019-04-20T15:59:12.525Z,31.10
2019-04-20T16:01:18.519Z,31.40
2019-04-20T16:03:29.646Z,32.20
2019-04-20T16:05:40.986Z,32.40
2019-04-20T16:07:51.101Z,34.00
2019-04-20T16:09:51.654Z,34.50
2019-04-20T16:11:57.050Z,34.60
2019-04-20T16:14:03.017Z,35.30
2019-04-20T16:16:07.831Z,34.40
2019-04-20T16:18:12.513Z,36.20
2019-04-20T16:20:20.105Z,36.20
2019-04-20T16:22:23.866Z,35.30
2019-04-20T16:24:32.894Z,36.60
2019-04-20T16:26:55.881Z,37.00
2019-04-20T16:28:59.852Z,35.60
2019-04-20T16:31:07.001Z,34.90
2019-04-20T16:33:10.446Z,34.80
2019-04-20T16:35:34.226Z,35.30
2019-04-20T16:37:38.500Z,35.60
2019-04-20T16:39:42.925Z,36.50
2019-04-20T16:41:46.979Z,34.70
2019-04-20T16:43:51.652Z,35.80
2019-04-20T16:45:57.091Z,37.30
2019-04-20T16:48:02.182Z,37.10
2019-04-20T16:50:08.746Z,36.70
2019-04-20T16:52:12.837Z,37.40
2019-04-20T16:54:17.689Z,38.40
2019-04-20T16:56:22.326Z,37.20
2019-04-20T16:58:28.012Z,37.70
2019-04-20T17:00:33.650Z,38.70
2019-04-20T17:02:44.587Z,38.90
2019-04-20T17:04:51.520Z,38.70
2019-04-20T17:07:20.665Z,39.60
2019-04-20T17:09:26.109Z,40.10
2019-04-20T17:11:30.201Z,38.80
2019-04-20T17:13:40.484Z,38.40
2019-04-20T17:15:39.729Z,38.00
2019-04-20T17:17:46.175Z,38.10
2019-04-20T17:19:49.503Z,38.50
2019-04-20T17:21:55.840Z,38.50
2019-04-20T17:23:59.464Z,38.20
2019-04-20T17:26:06.094Z,38.00
2019-04-20T17:28:26.910Z,37.80
2019-04-20T17:30:52.979Z,38.10
2019-04-20T17:33:02.345Z,38.60
2019-04-20T17:35:17.810Z,38.20
2019-04-20T17:37:12.872Z,38.80
2019-04-20T17:39:30.436Z,39.50
2019-04-20T17:41:44.475Z,38.80
2019-04-20T17:43:37.139Z,40.10
2019-04-20T17:45:47.528Z,40.70
2019-04-20T17:47:57.822Z,40.90
2019-04-20T17:50:06.911Z,41.20
2019-04-20T17:52:22.242Z,40.70
2019-04-20T17:54:19.862Z,40.80
2019-04-20T17:56:24.527Z,42.00
2019-04-20T17:58:32.645Z,42.10
2019-04-20T18:00:56.042Z,42.90
2019-04-20T18:03:14.646Z,42.60
2019-04-20T18:05:26.905Z,42.70
2019-04-20T18:07:35.407Z,43.10
2019-04-20T18:09:45.887Z,43.90
2019-04-20T18:11:32.751Z,44.70
2019-04-20T18:13:34.163Z,44.80
2019-04-20T18:15:52.638Z,45.90
2019-04-20T18:18:25.878Z,45.90
2019-04-20T18:20:23.049Z,46.20
2019-04-20T18:22:27.819Z,47.40
2019-04-20T18:24:58.291Z,47.90
2019-04-20T18:26:52.015Z,48.70
2019-04-20T18:29:03.609Z,49.40
2019-04-20T18:31:09.094Z,49.70
2019-04-20T18:33:17.940Z,50.30
2019-04-20T18:35:22.589Z,50.70
2019-04-20T18:37:27.437Z,51.30
2019-04-20T18:39:40.010Z,51.20
2019-04-20T18:41:46.660Z,52.20
2019-04-20T18:43:48.827Z,51.60
2019-04-20T18:46:08.053Z,51.30
2019-04-20T18:48:14.717Z,51.50
2019-04-20T18:50:10.508Z,52.00
2019-04-20T18:52:06.680Z,51.80
2019-04-20T18:54:17.215Z,52.50
2019-04-20T18:56:23.906Z,52.20
2019-04-20T18:58:22.938Z,53.00
2019-04-20T19:00:32.504Z,52.50
2019-04-20T19:02:38.053Z,52.10
2019-04-20T19:04:39.734Z,52.60
2019-04-20T19:06:43.841Z,52.40
2019-04-20T19:08:51.504Z,51.90
2019-04-20T19:11:01.541Z,52.80
2019-04-20T19:13:08.441Z,52.60
2019-04-20T19:15:48.141Z,52.40
2019-04-20T19:18:15.679Z,52.80
2019-04-20T19:20:18.327Z,53.10
2019-04-20T19:22:22.339Z,53.40
2019-04-20T19:24:29.289Z,53.10
2019-04-20T19:26:32.256Z,53.70
2019-04-20T19:28:44.233Z,54.70
2019-04-20T19:30:49.952Z,53.70
2019-04-20T19:33:05.026Z,54.30
2019-04-20T19:35:01.310Z,54.90
2019-04-20T19:37:13.705Z,55.00
2019-04-20T19:39:21.397Z,55.90
2019-04-20T19:41:27.351Z,56.20
2019-04-20T19:43:27.797Z,56.20
2019-04-20T19:45:48.710Z,55.60
2019-04-20T19:47:47.673Z,56.90
2019-04-20T19:49:44.964Z,55.70
2019-04-20T19:52:16.029Z,56.20
2019-04-20T19:54:16.608Z,56.10
2019-04-20T19:56:05.241Z,56.10
2019-04-20T19:58:14.040Z,56.30
2019-04-20T20:00:07.657Z,57.00
2019-04-20T20:02:12.158Z,56.90
2019-04-20T20:04:17.457Z,57.40
2019-04-20T20:06:29.347Z,57.10
2019-04-20T20:08:29.923Z,57.60
2019-04-20T20:10:37.724Z,58.10
2019-04-20T20:12:39.809Z,58.20
2019-04-20T20:14:47.798Z,58.50
2019-04-20T20:17:12.888Z,59.20
2019-04-20T20:19:06.001Z,58.80
2019-04-20T20:21:19.318Z,59.30
2019-04-20T20:23:07.926Z,59.20
2019-04-20T20:25:12.778Z,59.50
2019-04-20T20:27:25.637Z,59.90
2019-04-20T20:29:30.502Z,60.40
2019-04-20T20:31:46.977Z,59.30
2019-04-20T20:33:49.667Z,59.30
2019-04-20T20:35:48.128Z,59.60
2019-04-20T20:37:53.461Z,59.80
2019-04-20T20:39:57.017Z,59.70
2019-04-20T20:42:10.878Z,60.60
2019-04-20T20:44:08.750Z,60.60
2019-04-20T20:46:19.804Z,60.30
2019-04-20T20:48:34.050Z,60.90
2019-04-20T20:50:42.760Z,60.70
2019-04-20T20:52:44.057Z,61.20
2019-04-20T20:54:47.777Z,61.30
2019-04-20T20:56:48.752Z,62.00
2019-04-20T20:58:52.035Z,61.20
2019-04-20T21:00:57.546Z,61.30
2019-04-20T21:03:00.834Z,61.50
2019-04-20T21:05:00.121Z,62.10
2019-04-20T21:07:04.596Z,63.10
2019-04-20T21:09:10.402Z,62.30
2019-04-20T21:11:20.435Z,62.60
2019-04-20T21:13:21.384Z,63.00
2019-04-20T21:15:27.935Z,62.90
2019-04-20T21:17:47.504Z,62.90
2019-04-20T21:19:53.349Z,63.10
2019-04-20T21:21:50.469Z,63.30
2019-04-20T21:23:56.724Z,63.60
2019-04-20T21:26:12.740Z,64.20
2019-04-20T21:28:13.383Z,64.10
2019-04-20T21:30:29.140Z,64.20
2019-04-20T21:32:26.573Z,64.30
2019-04-20T21:34:31.202Z,64.50
2019-04-20T21:36:36.763Z,64.70
2019-04-20T21:38:42.918Z,65.00
2019-04-20T21:40:49.566Z,65.20
2019-04-20T21:42:58.784Z,66.30
2019-04-20T21:45:09.663Z,65.50
2019-04-20T21:47:05.155Z,65.20
2019-04-20T21:49:23.824Z,65.80
2019-04-20T21:51:29.731Z,65.20
2019-04-20T21:53:26.652Z,65.20
2019-04-20T21:55:27.846Z,65.60
2019-04-20T21:57:39.057Z,66.00
2019-04-20T21:59:43.236Z,66.20
2019-04-20T22:01:55.131Z,66.30
2019-04-20T22:03:50.263Z,65.80
2019-04-20T22:06:04.759Z,66.80
2019-04-20T22:08:11.355Z,66.20
2019-04-20T22:10:21.372Z,66.10
2019-04-20T22:12:20.461Z,65.70
2019-04-20T22:14:27.931Z,66.10
2019-04-20T22:16:36.567Z,66.60
2019-04-20T22:18:48.379Z,66.50
2019-04-20T22:20:52.220Z,67.20
2019-04-20T22:22:59.462Z,67.60
2019-04-20T22:25:08.261Z,67.90
2019-04-20T22:27:06.440Z,66.80
2019-04-20T22:29:04.177Z,66.80
2019-04-20T22:31:09.467Z,67.70
2019-04-20T22:33:36.344Z,67.80
2019-04-20T22:35:47.911Z,67.20
2019-04-20T22:37:52.041Z,68.40
2019-04-20T22:39:56.639Z,68.90
2019-04-20T22:42:07.119Z,68.10
2019-04-20T22:44:14.541Z,69.10
2019-04-20T22:46:13.058Z,68.90
2019-04-20T22:48:19.219Z,69.40
2019-04-20T22:50:45.108Z,70.00
2019-04-20T22:52:47.847Z,70.30
2019-04-20T22:54:54.834Z,70.50
2019-04-20T22:56:55.130Z,70.50
2019-04-20T22:58:57.564Z,70.30
2019-04-20T23:01:01.239Z,72.40
2019-04-20T23:03:00.821Z,71.90
2019-04-20T23:05:06.791Z,71.60
2019-04-20T23:07:12.656Z,71.60
2019-04-20T23:09:17.505Z,71.40
2019-04-20T23:11:26.993Z,72.20
2019-04-20T23:13:35.119Z,70.90
2019-04-20T23:15:34.364Z,72.10
2019-04-20T23:17:43.084Z,72.30
2019-04-20T23:19:49.507Z,72.10
2019-04-20T23:21:57.264Z,72.60
2019-04-20T23:24:01.698Z,72.90
2019-04-20T23:26:01.356Z,73.50
2019-04-20T23:28:10.109Z,73.60
2019-04-20T23:30:21.294Z,72.60
2019-04-20T23:32:19.580Z,73.30
2019-04-20T23:34:28.455Z,73.70
2019-04-20T23:36:36.963Z,73.80
2019-04-20T23:38:35.296Z,74.20
2019-04-20T23:40:39.694Z,74.00
2019-04-20T23:42:49.518Z,73.20
2019-04-20T23:45:16.858Z,74.00
2019-04-20T23:47:30.078Z,73.30
2019-04-20T23:49:54.248Z,74.00
2019-04-20T23:52:08.656Z,76.30
2019-04-20T23:53:55.530Z,75.50
2019-04-20T23:55:54.023Z,76.60
2019-04-20T23:58:03.277Z,76.60
